TimeCDT,TemperatureF,Dew PointF,Humidity,Sea Level PressureIn,VisibilityMPH,Wind Direction,Wind SpeedMPH,Gust SpeedMPH,PrecipitationIn,Events,Conditions,WindDirDegrees,DateUTC
12:54 AM,57.0,43.0,59,30.06,10.0,South,6.9,-,N/A,,Clear,170,2012-09-20 05:54:00
1:54 AM,55.9,42.1,60,30.06,10.0,Calm,Calm,-,N/A,,Clear,0,2012-09-20 06:54:00
2:54 AM,52.0,45.0,77,30.07,10.0,Calm,Calm,-,N/A,,Scattered Clouds,0,2012-09-20 07:54:00
3:54 AM,53.1,44.1,71,30.04,10.0,Calm,Calm,-,N/A,,Clear,0,2012-09-20 08:54:00
4:54 AM,55.0,44.1,67,30.03,10.0,SSE,4.6,-,N/A,,Clear,160,2012-09-20 09:54:00
6:54 AM,55.0,45.0,69,30.04,10.0,South,5.8,-,N/A,,Clear,190,2012-09-20 11:54:00
7:54 AM,57.9,46.9,67,30.03,10.0,South,9.2,-,N/A,,Clear,190,2012-09-20 12:54:00
8:54 AM,63.0,48.0,58,30.01,10.0,South,13.8,19.6,N/A,,Clear,190,2012-09-20 13:54:00
9:54 AM,68.0,48.9,50,30.01,10.0,SSW,12.7,-,N/A,,Clear,210,2012-09-20 14:54:00
10:54 AM,72.0,51.1,48,30.00,10.0,SSW,12.7,-,N/A,,Clear,210,2012-09-20 15:54:00
11:54 AM,75.0,51.1,43,30.00,10.0,SW,13.8,-,N/A,,Clear,220,2012-09-20 16:54:00
12:54 PM,77.0,54.0,45,29.98,10.0,SW,12.7,18.4,N/A,,Clear,220,2012-09-20 17:54:00
1:54 PM,78.1,53.1,42,29.95,10.0,SSW,12.7,-,N/A,,Partly Cloudy,200,2012-09-20 18:54:00
2:54 PM,78.1,54.0,43,29.94,10.0,SSW,11.5,-,N/A,,Clear,200,2012-09-20 19:54:00
3:54 PM,78.1,54.0,43,29.93,10.0,SW,12.7,19.6,N/A,,Mostly Cloudy,220,2012-09-20 20:54:00
4:54 PM,75.9,55.0,48,29.93,10.0,SW,10.4,-,N/A,,Overcast,220,2012-09-20 21:54:00
5:54 PM,75.0,55.9,51,29.95,10.0,NW,8.1,-,N/A,,Overcast,320,2012-09-20 22:54:00
6:54 PM,72.0,57.0,59,29.96,10.0,Calm,Calm,-,N/A,,Overcast,0,2012-09-20 23:54:00
7:54 PM,66.9,59.0,76,29.97,10.0,Calm,Calm,-,N/A,,Scattered Clouds,0,2012-09-21 00:54:00
8:54 PM,62.1,57.0,84,29.98,10.0,Calm,Calm,-,N/A,,Clear,0,2012-09-21 01:54:00
9:54 PM,62.1,57.9,86,29.99,10.0,Calm,Calm,-,N/A,,Clear,0,2012-09-21 02:54:00
10:54 PM,60.8,57.2,88,30.00,10.0,Calm,Calm,-,N/A,,Mostly Cloudy,0,2012-09-21 03:54:00
11:54 PM,59.0,55.9,90,29.99,10.0,Calm,Calm,-,N/A,,Clear,0,2012-09-21 04:54:00